Crescent, Oregon
Current Conditions -  °F | °C
As of 10:15 AM on Friday 24 Oct 2014 (Local Time) from KBDN Reporting Station
Light Rain Light Rain  
Wind Chill: 46°   Ceiling: Unl
Heat Index: 46°   Visibility: 10mi
Dew Point: 45°   Wind: 3mph
Humidity: 93%   Direction: 120°ESE
Pressure: 30.04"   Gusts: NA
Location:  43.46°N, 121.7°W
Report Text: KBDN 241715Z AUTO 12003KT 10SM -RA CLR 08/07 A3004 RMK AO2
Loading
Personal Weather Stations






























Interactive Weather Map
Tropical Storm Tracking
New forecast layout! Learn more

10-Day Weather Forecast

Advertisements
Track Severe Weather on mobile